Time;durP1;ratioP1;P1;durP2;ratioP2;P2;SDS_P1;SDS_P2;PMS_P1;PMS_P2;Temp;Humidity;BMP_temperature;BMP_pressure;BME280_temperature;BME280_humidity;BME280_pressure;Samples;Min_cycle;Max_cycle;Signal;HPM_P1;HPM_P2
2022/12/06 00:00:56;;;;;;;23.13;11.13;;;2.60;99.90;;;;;;5073220;28;20210;-52
2022/12/06 00:03:22;;;;;;;23.27;12.02;;;2.60;99.90;;;;;;5073359;28;20606;-52
2022/12/06 00:05:47;;;;;;;20.95;11.52;;;2.70;99.90;;;;;;5072793;28;20232;-52
2022/12/06 00:08:13;;;;;;;22.35;11.88;;;2.70;99.90;;;;;;5073152;28;20170;-53
2022/12/06 00:10:38;;;;;;;18.75;10.80;;;2.60;99.90;;;;;;5073151;28;20166;-53
2022/12/06 00:13:04;;;;;;;17.60;11.75;;;2.70;99.90;;;;;;5073186;28;20158;-53
2022/12/06 00:15:33;;;;;;;19.75;10.95;;;2.70;99.90;;;;;;5073023;28;20253;-53
2022/12/06 00:17:59;;;;;;;21.83;11.15;;;2.60;99.90;;;;;;5073042;28;20632;-53
2022/12/06 00:20:24;;;;;;;20.45;11.25;;;2.60;99.90;;;;;;5073357;28;20174;-49
2022/12/06 00:22:50;;;;;;;21.50;11.98;;;1.30;99.90;;;;;;5073261;28;20167;-52
2022/12/06 00:25:15;;;;;;;18.42;11.15;;;2.60;99.90;;;;;;5072852;28;20201;-53
2022/12/06 00:27:41;;;;;;;16.85;10.35;;;2.70;99.90;;;;;;5072043;28;20177;-53
2022/12/06 00:30:07;;;;;;;23.30;11.15;;;2.70;99.90;;;;;;5072707;28;20177;-53
2022/12/06 00:32:32;;;;;;;21.80;11.50;;;2.70;99.90;;;;;;5072718;28;20247;-52
2022/12/06 00:34:58;;;;;;;19.17;11.23;;;2.70;99.90;;;;;;5072682;28;20185;-53
2022/12/06 00:37:23;;;;;;;21.42;10.68;;;2.60;99.90;;;;;;5072847;28;20174;-53
2022/12/06 00:39:49;;;;;;;20.17;11.07;;;2.60;99.90;;;;;;5072462;28;20174;-53
2022/12/06 00:42:14;;;;;;;20.05;11.05;;;2.80;99.90;;;;;;5072488;28;20169;-53
2022/12/06 00:44:40;;;;;;;20.40;12.40;;;2.70;99.90;;;;;;5072315;28;20212;-53
2022/12/06 00:47:06;;;;;;;25.08;12.38;;;2.60;99.90;;;;;;5072478;28;20236;-51
2022/12/06 00:49:31;;;;;;;24.60;12.15;;;2.70;99.90;;;;;;5072431;28;20181;-50
2022/12/06 00:51:57;;;;;;;19.73;11.05;;;2.80;99.90;;;;;;5072309;28;20173;-53
2022/12/06 00:54:22;;;;;;;20.95;12.13;;;2.70;99.90;;;;;;5072648;28;20163;-53
2022/12/06 00:56:48;;;;;;;27.73;11.75;;;2.80;99.90;;;;;;5072433;28;20166;-53
2022/12/06 00:59:13;;;;;;;22.98;11.48;;;2.70;99.90;;;;;;5072176;28;20697;-46
2022/12/06 01:01:40;;;;;;;25.13;12.63;;;2.70;99.90;;;;;;5072007;28;20224;-46
2022/12/06 01:04:08;;;;;;;23.73;12.32;;;2.80;99.90;;;;;;5071869;28;20158;-49
2022/12/06 01:06:35;;;;;;;20.77;12.05;;;2.80;99.90;;;;;;5072215;28;20178;-47
2022/12/06 01:09:05;;;;;;;24.48;12.07;;;2.70;99.90;;;;;;5072092;28;20158;-46
2022/12/06 01:11:31;;;;;;;21.15;11.98;;;2.80;99.90;;;;;;5072250;28;20173;-45
2022/12/06 01:13:56;;;;;;;21.15;11.85;;;2.70;99.90;;;;;;5071958;28;20166;-52
2022/12/06 01:16:25;;;;;;;20.38;9.88;;;2.80;99.90;;;;;;5072245;28;20630;-53
2022/12/06 01:18:53;;;;;;;23.40;12.07;;;2.70;99.90;;;;;;5072324;28;20197;-53
2022/12/06 01:21:19;;;;;;;26.42;12.13;;;2.70;99.90;;;;;;5071820;28;20177;-52
2022/12/06 01:23:47;;;;;;;20.30;11.65;;;2.80;99.90;;;;;;5071824;28;20169;-53
2022/12/06 01:26:17;;;;;;;25.50;13.38;;;2.80;99.90;;;;;;5071765;28;20204;-52
2022/12/06 01:28:44;;;;;;;20.88;11.98;;;2.80;99.90;;;;;;5071823;28;20154;-49
2022/12/06 01:31:09;;;;;;;23.67;12.00;;;2.70;99.90;;;;;;5071801;28;20622;-53
2022/12/06 01:33:35;;;;;;;25.40;12.15;;;2.70;99.90;;;;;;5071979;28;20173;-53
2022/12/06 01:36:02;;;;;;;21.20;11.00;;;2.70;99.90;;;;;;5071718;28;20161;-53
2022/12/06 01:38:28;;;;;;;22.85;11.70;;;2.70;99.90;;;;;;5071662;28;20178;-53
2022/12/06 01:40:54;;;;;;;23.13;11.77;;;2.80;99.90;;;;;;5072126;28;20193;-54
2022/12/06 01:43:36;;;;;;;24.58;12.77;;;2.80;99.90;;;;;;5072138;28;20193;-54
2022/12/06 01:46:19;;;;;;;22.05;11.20;;;2.90;99.90;;;;;;5071476;28;20214;-54
2022/12/06 01:48:46;;;;;;;26.00;11.93;;;2.80;99.90;;;;;;5071646;28;20166;-53
2022/12/06 01:51:12;;;;;;;20.15;12.15;;;2.80;99.90;;;;;;5071830;28;20173;-51
2022/12/06 01:53:40;;;;;;;21.70;11.63;;;2.70;99.90;;;;;;5071584;28;20158;-51
2022/12/06 01:56:07;;;;;;;23.23;12.80;;;2.70;99.90;;;;;;5071445;28;20257;-53
2022/12/06 01:58:38;;;;;;;23.33;12.27;;;2.80;99.90;;;;;;5071475;28;20622;-51
2022/12/06 02:01:03;;;;;;;21.08;12.02;;;2.80;99.90;;;;;;5071482;28;20271;-52
2022/12/06 02:03:32;;;;;;;20.92;12.07;;;2.80;99.90;;;;;;5071339;28;20565;-52
2022/12/06 02:06:00;;;;;;;27.45;12.70;;;2.80;99.90;;;;;;5071571;28;20205;-52
2022/12/06 02:08:27;;;;;;;23.67;12.88;;;2.90;99.90;;;;;;5071394;28;20605;-52
2022/12/06 02:10:53;;;;;;;31.25;13.75;;;2.80;99.90;;;;;;5072013;28;20182;-52
2022/12/06 02:13:20;;;;;;;25.13;13.68;;;2.90;99.90;;;;;;5071706;28;20177;-47
2022/12/06 02:16:25;;;;;;;29.08;14.98;;;2.90;99.90;;;;;;5071268;28;20231;-48
2022/12/06 02:18:54;;;;;;;26.55;13.57;;;2.90;99.90;;;;;;5071977;28;20265;-47
2022/12/06 02:21:40;;;;;;;29.23;14.65;;;2.90;99.90;;;;;;5071836;28;20558;-47
2022/12/06 02:24:38;;;;;;;24.15;13.63;;;3.00;99.90;;;;;;5020307;28;20228;-47
2022/12/06 02:27:18;;;;;;;25.70;11.95;;;3.10;99.90;;;;;;5071401;28;20170;-46
2022/12/06 02:29:46;;;;;;;25.83;13.77;;;2.90;99.90;;;;;;5071196;28;20162;-47
2022/12/06 02:32:21;;;;;;;25.25;14.50;;;3.00;99.90;;;;;;5071153;28;20193;-46
2022/12/06 02:34:54;;;;;;;28.15;13.63;;;2.90;99.90;;;;;;5071190;28;20193;-48
2022/12/06 02:37:25;;;;;;;26.15;13.65;;;2.90;99.90;;;;;;5071621;28;20504;-47
2022/12/06 02:39:54;;;;;;;24.00;13.63;;;3.00;99.90;;;;;;5071424;28;20174;-46
2022/12/06 02:42:25;;;;;;;25.88;14.10;;;2.90;99.90;;;;;;5071572;28;20622;-46
2022/12/06 02:45:00;;;;;;;28.77;14.77;;;2.90;99.90;;;;;;5071169;28;20197;-46
2022/12/06 02:47:31;;;;;;;23.02;13.23;;;3.00;99.90;;;;;;5071053;28;20528;-47
2022/12/06 02:49:58;;;;;;;24.98;13.07;;;3.00;99.90;;;;;;5071233;28;20175;-45
2022/12/06 02:52:26;;;;;;;29.60;14.38;;;3.00;99.90;;;;;;5074368;28;20170;-45
2022/12/06 02:54:55;;;;;;;22.75;13.27;;;3.00;99.90;;;;;;5075252;28;20174;-45
2022/12/06 02:57:33;;;;;;;28.77;14.02;;;3.00;99.90;;;;;;5074981;28;20154;-46
2022/12/06 02:59:59;;;;;;;25.42;14.40;;;3.00;99.90;;;;;;5074493;28;20180;-46
2022/12/06 03:02:25;;;;;;;26.60;14.73;;;3.10;99.90;;;;;;5074475;28;20217;-45
2022/12/06 03:05:09;;;;;;;26.63;13.75;;;3.00;99.90;;;;;;5074711;28;20227;-46
2022/12/06 03:07:45;;;;;;;26.95;14.23;;;3.10;99.90;;;;;;5074167;28;20245;-46
2022/12/06 03:10:30;;;;;;;27.05;13.88;;;3.10;99.90;;;;;;5074287;28;20173;-46
2022/12/06 03:13:17;;;;;;;35.25;14.25;;;3.10;99.90;;;;;;5074343;28;20170;-46
2022/12/06 03:16:01;;;;;;;31.50;13.95;;;3.10;99.90;;;;;;5074343;28;20638;-45
2022/12/06 03:18:43;;;;;;;32.67;13.45;;;3.10;99.90;;;;;;5074137;28;20654;-46
2022/12/06 03:21:21;;;;;;;26.80;12.70;;;3.20;99.90;;;;;;5074024;28;20174;-48
2022/12/06 03:23:49;;;;;;;25.65;12.70;;;3.00;99.90;;;;;;5074071;28;20252;-46
2022/12/06 03:26:19;;;;;;;22.25;12.80;;;3.20;99.90;;;;;;5073850;28;20716;-46
2022/12/06 03:28:47;;;;;;;24.60;13.32;;;3.10;99.90;;;;;;5073879;28;20629;-45
2022/12/06 03:31:14;;;;;;;27.27;13.88;;;3.20;99.90;;;;;;5073792;28;20173;-45
2022/12/06 03:33:46;;;;;;;25.00;13.57;;;3.10;99.90;;;;;;5073855;28;20248;-46
2022/12/06 03:36:13;;;;;;;26.02;14.15;;;3.10;99.90;;;;;;5073772;28;20250;-46
2022/12/06 03:39:01;;;;;;;25.42;13.23;;;3.20;99.90;;;;;;5073756;28;20178;-47
2022/12/06 03:41:35;;;;;;;30.27;13.50;;;3.20;99.90;;;;;;5073779;28;20253;-45
2022/12/06 03:44:00;;;;;;;26.60;13.55;;;3.10;99.90;;;;;;5073865;28;20181;-47
2022/12/06 03:46:31;;;;;;;27.65;14.52;;;3.10;99.90;;;;;;5073597;28;20657;-46
2022/12/06 03:49:02;;;;;;;32.08;13.80;;;3.10;99.90;;;;;;5073518;28;20177;-46
2022/12/06 03:51:31;;;;;;;36.72;14.88;;;3.20;99.90;;;;;;5073626;28;20638;-47
2022/12/06 03:53:58;;;;;;;29.38;13.88;;;3.10;99.90;;;;;;5073551;28;20174;-45
2022/12/06 03:56:25;;;;;;;26.95;13.77;;;3.30;99.90;;;;;;5073384;28;20166;-46
2022/12/06 03:58:51;;;;;;;27.52;14.93;;;3.20;99.90;;;;;;5073730;28;20184;-46
2022/12/06 04:01:17;;;;;;;24.95;14.52;;;3.20;99.90;;;;;;5073183;28;20601;-45
2022/12/06 04:03:42;;;;;;;25.92;13.43;;;3.30;99.90;;;;;;5071490;28;20245;-46
2022/12/06 04:06:08;;;;;;;26.05;14.00;;;3.10;99.90;;;;;;5072472;28;20201;-46
2022/12/06 04:08:34;;;;;;;35.25;15.20;;;3.20;99.90;;;;;;5073173;28;20162;-45
2022/12/06 04:11:00;;;;;;;23.45;12.30;;;3.20;99.90;;;;;;5073372;28;20241;-46
2022/12/06 04:13:27;;;;;;;28.63;14.23;;;3.20;99.90;;;;;;5073173;28;20493;-46
2022/12/06 04:15:58;;;;;;;27.70;14.63;;;3.20;99.90;;;;;;5073349;28;20605;-45
2022/12/06 04:18:24;;;;;;;24.92;13.52;;;3.20;99.90;;;;;;5073420;28;20257;-45
2022/12/06 04:23:48;;;;;;;29.20;14.23;;;3.20;99.90;;;;;;5073158;28;20257;-46
2022/12/06 04:26:20;;;;;;;26.00;13.98;;;3.20;99.90;;;;;;5072846;28;20212;-46
2022/12/06 04:39:44;;;;;;;26.35;13.57;;;3.30;99.90;;;;;;5072632;28;20577;-46
2022/12/06 04:44:55;;;;;;;31.05;13.15;;;3.30;99.90;;;;;;5072609;28;20251;-48
2022/12/06 04:47:21;;;;;;;35.10;14.65;;;3.30;99.90;;;;;;5072677;28;20569;-46
2022/12/06 04:49:47;;;;;;;28.92;14.23;;;3.30;99.90;;;;;;5072391;28;20173;-46
2022/12/06 04:52:12;;;;;;;35.22;15.15;;;3.30;99.90;;;;;;5072369;28;20180;-46
2022/12/06 04:54:38;;;;;;;36.08;13.82;;;3.30;99.90;;;;;;5072278;28;20220;-45
2022/12/06 04:57:09;;;;;;;39.95;14.65;;;3.30;99.90;;;;;;5072571;28;20567;-45
2022/12/06 04:59:36;;;;;;;34.25;13.82;;;3.40;99.90;;;;;;5072422;28;20583;-46
2022/12/06 05:02:02;;;;;;;33.45;14.15;;;3.30;99.90;;;;;;5072067;28;20249;-45
2022/12/06 05:04:27;;;;;;;36.47;14.30;;;3.40;99.90;;;;;;5072049;28;20701;-45
2022/12/06 05:06:53;;;;;;;45.55;15.18;;;3.40;99.90;;;;;;5072648;28;20202;-48
2022/12/06 05:09:18;;;;;;;34.92;14.70;;;3.40;99.90;;;;;;5072383;28;20630;-46
2022/12/06 05:11:44;;;;;;;40.50;15.77;;;3.30;99.90;;;;;;5072064;28;20511;-46
2022/12/06 05:14:10;;;;;;;38.03;15.50;;;3.40;99.90;;;;;;5071668;28;20166;-46
2022/12/06 05:16:35;;;;;;;41.45;14.93;;;3.50;99.90;;;;;;5071958;28;20176;-48
2022/12/06 05:19:01;;;;;;;37.38;15.02;;;3.40;99.90;;;;;;5072000;28;20174;-46
2022/12/06 05:21:26;;;;;;;38.47;15.30;;;3.40;99.90;;;;;;5071901;28;20162;-46
2022/12/06 05:23:53;;;;;;;48.97;14.68;;;3.50;99.90;;;;;;5072137;28;20535;-46
2022/12/06 05:26:21;;;;;;;27.10;14.73;;;3.40;99.90;;;;;;5072010;28;20756;-46
2022/12/06 05:28:47;;;;;;;37.10;15.63;;;3.40;99.90;;;;;;5071756;28;20208;-46
2022/12/06 05:31:14;;;;;;;38.08;14.80;;;3.50;99.90;;;;;;5071713;28;20783;-45
2022/12/06 05:33:40;;;;;;;33.55;14.68;;;3.50;99.90;;;;;;5071834;28;20170;-46
2022/12/06 05:36:14;;;;;;;31.23;13.82;;;3.50;99.90;;;;;;5071770;28;20173;-46
2022/12/06 05:38:40;;;;;;;31.67;13.93;;;3.40;99.90;;;;;;5053712;28;20195;-46
2022/12/06 05:41:06;;;;;;;29.85;13.65;;;3.40;99.90;;;;;;5071704;28;20165;-46
2022/12/06 05:43:32;;;;;;;26.30;13.10;;;3.40;99.90;;;;;;5071835;28;20216;-45
2022/12/06 05:45:58;;;;;;;37.15;13.73;;;3.40;99.90;;;;;;5041618;28;20210;-46
2022/12/06 05:48:24;;;;;;;29.30;13.40;;;3.50;99.90;;;;;;5051375;28;20634;-47
2022/12/06 05:50:49;;;;;;;31.15;15.07;;;3.40;99.90;;;;;;5051490;28;20181;-46
2022/12/06 05:53:16;;;;;;;29.00;13.90;;;3.40;99.90;;;;;;5051574;28;20163;-46
2022/12/06 05:55:42;;;;;;;33.25;15.15;;;3.50;99.90;;;;;;5051272;28;20244;-46
2022/12/06 05:58:08;;;;;;;35.65;14.70;;;3.50;99.90;;;;;;5051514;28;20173;-45
2022/12/06 06:00:34;;;;;;;30.80;14.88;;;3.50;99.90;;;;;;5051410;28;20174;-45
2022/12/06 06:03:00;;;;;;;36.08;14.70;;;3.60;99.90;;;;;;5051233;28;20218;-47
2022/12/06 06:05:25;;;;;;;33.58;14.93;;;3.60;99.90;;;;;;5051556;28;20557;-45
2022/12/06 06:07:51;;;;;;;38.67;14.95;;;3.50;99.90;;;;;;5051745;28;20159;-45
2022/12/06 06:10:17;;;;;;;37.85;13.95;;;3.70;99.90;;;;;;5051242;28;20575;-46
2022/12/06 06:12:43;;;;;;;32.38;14.10;;;3.60;99.90;;;;;;5051210;28;20176;-46
2022/12/06 06:15:10;;;;;;;30.52;13.60;;;3.60;99.90;;;;;;5051388;28;20166;-46
2022/12/06 06:17:36;;;;;;;30.08;14.27;;;3.40;99.90;;;;;;5051254;28;20595;-46
2022/12/06 06:20:06;;;;;;;29.05;13.88;;;3.60;99.90;;;;;;5051430;28;20182;-45
2022/12/06 06:22:33;;;;;;;29.52;14.18;;;3.60;99.90;;;;;;5051162;28;20232;-46
2022/12/06 06:24:59;;;;;;;33.95;13.65;;;3.60;99.90;;;;;;5051107;28;20202;-46
2022/12/06 06:27:24;;;;;;;33.17;14.52;;;3.50;99.90;;;;;;5053966;28;20163;-45
2022/12/06 06:29:50;;;;;;;33.83;12.95;;;3.60;99.90;;;;;;5055380;28;20579;-47
2022/12/06 06:32:15;;;;;;;30.40;14.50;;;3.60;99.90;;;;;;5054912;28;20241;-45
2022/12/06 06:34:41;;;;;;;31.35;14.10;;;3.70;99.90;;;;;;5054825;28;20175;-46
2022/12/06 06:37:07;;;;;;;36.10;15.70;;;3.60;99.90;;;;;;5054874;28;20155;-46
2022/12/06 06:39:32;;;;;;;32.05;13.52;;;3.60;99.90;;;;;;5054782;28;20229;-45
2022/12/06 06:41:58;;;;;;;37.13;14.52;;;3.70;99.90;;;;;;5054835;28;20198;-46
2022/12/06 06:44:23;;;;;;;34.00;15.30;;;3.70;99.90;;;;;;5054694;28;20217;-47
2022/12/06 06:46:49;;;;;;;34.92;14.82;;;3.60;99.90;;;;;;5055063;28;20599;-46
2022/12/06 06:49:16;;;;;;;33.33;15.05;;;3.80;99.90;;;;;;5054665;28;20650;-47
2022/12/06 06:51:42;;;;;;;31.45;14.23;;;3.60;99.90;;;;;;5054894;28;20178;-46
2022/12/06 06:54:07;;;;;;;32.63;15.25;;;3.70;99.90;;;;;;5054558;28;20206;-46
2022/12/06 06:56:33;;;;;;;33.15;15.68;;;3.70;99.90;;;;;;5054829;28;20178;-46
2022/12/06 06:58:58;;;;;;;32.20;15.35;;;3.80;99.90;;;;;;5054379;28;20170;-46
2022/12/06 07:01:24;;;;;;;31.45;14.57;;;3.70;99.90;;;;;;5054262;28;20214;-45
2022/12/06 07:03:50;;;;;;;27.90;14.65;;;3.70;99.90;;;;;;5055088;28;20173;-47
2022/12/06 07:06:17;;;;;;;26.15;13.88;;;3.90;99.90;;;;;;5054535;28;20293;-46
2022/12/06 07:08:45;;;;;;;29.75;15.50;;;3.80;99.90;;;;;;5054363;28;20250;-46
2022/12/06 07:11:11;;;;;;;26.50;13.93;;;3.80;99.90;;;;;;5054157;28;20179;-47
2022/12/06 07:13:38;;;;;;;21.95;13.55;;;4.00;99.90;;;;;;5054203;28;20209;-47
2022/12/06 07:16:06;;;;;;;27.35;15.60;;;4.00;99.90;;;;;;5054090;28;20170;-47
2022/12/06 07:18:32;;;;;;;28.55;14.52;;;3.90;99.90;;;;;;5054260;28;20169;-46
2022/12/06 07:21:05;;;;;;;28.75;14.57;;;4.10;99.90;;;;;;5054107;28;20227;-47
2022/12/06 07:23:32;;;;;;;28.48;14.50;;;4.10;99.90;;;;;;5054274;28;20163;-47
2022/12/06 07:26:05;;;;;;;22.35;12.52;;;4.10;99.90;;;;;;5053961;28;20206;-46
2022/12/06 07:28:30;;;;;;;24.60;13.10;;;4.20;99.90;;;;;;5053831;28;20380;-46
2022/12/06 07:30:56;;;;;;;23.50;12.60;;;4.10;99.90;;;;;;5053911;28;20694;-47
2022/12/06 07:33:22;;;;;;;25.00;12.60;;;4.20;99.90;;;;;;5054140;28;20309;-46
2022/12/06 07:35:51;;;;;;;23.17;12.40;;;4.20;99.90;;;;;;5053859;28;20178;-46
2022/12/06 07:38:17;;;;;;;24.50;12.73;;;4.30;99.90;;;;;;5054158;28;20228;-46
2022/12/06 07:40:43;;;;;;;25.67;12.82;;;4.30;99.90;;;;;;5053724;28;20159;-47
2022/12/06 07:45:53;;;;;;;21.38;11.75;;;4.30;99.90;;;;;;5053607;28;20221;-47
2022/12/06 07:48:19;;;;;;;23.50;12.30;;;4.40;99.90;;;;;;5053989;28;20614;-46
2022/12/06 07:50:46;;;;;;;26.63;11.63;;;4.50;99.90;;;;;;5071306;28;20618;-43
2022/12/06 07:53:12;;;;;;;25.35;12.32;;;4.30;99.90;;;;;;5060719;28;20705;-43
2022/12/06 07:55:37;;;;;;;26.48;12.93;;;4.30;99.90;;;;;;5052057;28;20249;-42
2022/12/06 07:58:03;;;;;;;21.23;12.02;;;4.50;99.90;;;;;;5051698;28;20163;-43
2022/12/06 08:00:28;;;;;;;22.63;10.77;;;4.40;99.90;;;;;;5051727;28;20534;-46
2022/12/06 08:02:54;;;;;;;25.48;11.25;;;4.30;99.90;;;;;;5051336;28;20314;-47
2022/12/06 08:05:20;;;;;;;29.10;12.40;;;4.40;99.90;;;;;;5051918;28;20198;-47
2022/12/06 08:07:46;;;;;;;24.38;10.73;;;4.40;99.90;;;;;;5051413;28;20170;-48
2022/12/06 08:10:11;;;;;;;17.58;10.00;;;4.50;99.90;;;;;;5051447;28;20167;-47
2022/12/06 08:12:37;;;;;;;20.88;10.57;;;4.40;99.90;;;;;;5059981;28;20257;-47
2022/12/06 08:15:03;;;;;;;19.55;11.45;;;4.60;99.90;;;;;;5071652;28;20170;-48
2022/12/06 08:17:29;;;;;;;25.48;11.13;;;4.50;99.90;;;;;;5071150;28;20224;-47
2022/12/06 08:19:54;;;;;;;24.27;10.93;;;4.50;99.90;;;;;;5071407;28;20288;-47
2022/12/06 08:22:20;;;;;;;22.90;10.90;;;4.60;99.90;;;;;;5071679;28;20219;-50
2022/12/06 08:24:45;;;;;;;20.60;10.75;;;4.60;99.90;;;;;;5071267;28;20201;-46
2022/12/06 08:27:11;;;;;;;21.48;12.30;;;4.60;99.90;;;;;;5071413;28;20214;-45
2022/12/06 08:29:37;;;;;;;19.38;10.93;;;4.70;99.90;;;;;;5070846;28;20682;-45
2022/12/06 08:32:03;;;;;;;28.58;13.38;;;4.60;99.90;;;;;;5071128;28;20179;-46
2022/12/06 08:34:28;;;;;;;23.77;12.90;;;4.60;99.90;;;;;;5070914;28;20537;-45
2022/12/06 08:36:54;;;;;;;26.35;13.85;;;4.70;99.90;;;;;;5070842;28;20291;-45
2022/12/06 08:39:19;;;;;;;25.33;13.10;;;4.70;99.90;;;;;;5071535;28;20178;-46
2022/12/06 08:41:54;;;;;;;23.98;13.88;;;4.70;99.90;;;;;;5070933;28;20246;-44
2022/12/06 08:44:20;;;;;;;23.83;12.88;;;4.70;99.90;;;;;;5070942;28;20173;-44
2022/12/06 08:46:46;;;;;;;23.60;13.05;;;4.80;99.90;;;;;;5070602;28;20177;-43
2022/12/06 08:49:13;;;;;;;26.83;12.90;;;4.70;99.90;;;;;;5070186;28;20166;-44
2022/12/06 08:51:38;;;;;;;21.92;11.77;;;4.70;99.90;;;;;;5070852;28;20197;-44
2022/12/06 08:54:06;;;;;;;20.48;12.52;;;4.70;99.90;;;;;;5070437;28;20620;-45
2022/12/06 08:56:32;;;;;;;20.58;12.13;;;4.80;99.90;;;;;;5070541;28;20220;-44
2022/12/06 08:58:58;;;;;;;20.75;11.23;;;4.80;99.90;;;;;;5070591;28;20162;-45
2022/12/06 09:01:26;;;;;;;27.05;11.77;;;4.90;99.90;;;;;;5070316;28;20689;-45
2022/12/06 09:03:52;;;;;;;19.85;12.02;;;4.90;99.90;;;;;;5070807;28;20611;-45
2022/12/06 09:06:19;;;;;;;23.25;10.77;;;4.80;99.90;;;;;;5070650;28;20304;-45
2022/12/06 09:08:45;;;;;;;22.35;11.75;;;4.90;99.90;;;;;;5070594;28;20324;-44
2022/12/06 09:11:13;;;;;;;20.65;11.50;;;5.00;99.90;;;;;;5070309;28;20166;-45
2022/12/06 09:13:38;;;;;;;20.00;10.30;;;5.10;99.90;;;;;;5069332;28;20174;-45
2022/12/06 09:16:15;;;;;;;18.83;10.35;;;5.10;99.90;;;;;;5070234;28;20257;-45
2022/12/06 09:18:42;;;;;;;18.30;10.38;;;5.10;99.90;;;;;;5068980;28;20166;-46
2022/12/06 09:21:16;;;;;;;15.02;9.27;;;5.10;99.90;;;;;;5070151;28;20205;-45
2022/12/06 09:23:43;;;;;;;17.65;9.75;;;5.20;99.90;;;;;;5070008;28;20170;-46
2022/12/06 09:26:08;;;;;;;18.45;10.32;;;5.10;99.90;;;;;;5069877;28;20548;-47
2022/12/06 09:28:36;;;;;;;18.73;10.07;;;5.10;99.90;;;;;;5070200;28;20177;-46
2022/12/06 09:31:03;;;;;;;14.25;8.65;;;5.20;99.90;;;;;;5070143;28;20239;-46
2022/12/06 09:33:29;;;;;;;17.60;9.98;;;5.30;99.90;;;;;;5068121;28;20165;-45
2022/12/06 09:35:55;;;;;;;20.30;9.63;;;5.20;99.90;;;;;;5069921;28;20264;-46
2022/12/06 09:38:25;;;;;;;17.38;9.52;;;5.20;99.90;;;;;;5070155;28;20216;-45
2022/12/06 09:41:05;;;;;;;15.80;8.70;;;5.30;99.90;;;;;;5070577;28;20249;-47
2022/12/06 09:43:59;;;;;;;16.30;9.40;;;5.30;99.90;;;;;;5070033;28;20166;-45
2022/12/06 09:46:48;;;;;;;16.67;9.32;;;5.30;99.90;;;;;;5069687;28;20611;-46
2022/12/06 09:49:16;;;;;;;16.27;9.55;;;5.20;99.90;;;;;;5070091;28;20189;-45
2022/12/06 09:52:00;;;;;;;17.67;8.50;;;5.30;99.90;;;;;;5069766;28;20170;-45
2022/12/06 09:54:52;;;;;;;16.98;8.82;;;5.30;99.90;;;;;;5069584;28;20177;-45
2022/12/06 09:57:27;;;;;;;15.98;8.80;;;5.40;99.90;;;;;;5069999;28;20169;-45
2022/12/06 10:00:04;;;;;;;14.20;8.70;;;5.40;99.90;;;;;;5069818;28;20172;-45
2022/12/06 10:02:46;;;;;;;16.15;8.73;;;5.40;99.90;;;;;;5072924;28;20639;-45
2022/12/06 10:05:37;;;;;;;14.10;9.35;;;5.40;99.90;;;;;;5073753;28;20201;-45
2022/12/06 10:08:44;;;;;;;17.48;9.35;;;5.30;99.90;;;;;;5059297;28;20178;-45
2022/12/06 10:11:19;;;;;;;13.65;8.95;;;5.50;99.90;;;;;;5033972;28;20253;-45
2022/12/06 10:14:12;;;;;;;28.77;14.93;;;5.40;99.90;;;;;;5074001;28;20742;-44
2022/12/06 10:17:06;;;;;;;17.85;8.90;;;5.40;99.90;;;;;;5073363;28;20170;-43
2022/12/06 10:19:52;;;;;;;14.85;8.30;;;5.30;99.90;;;;;;5073628;28;20166;-43
2022/12/06 10:22:55;;;;;;;16.92;9.13;;;5.50;99.90;;;;;;5073663;28;20216;-45
2022/12/06 10:25:23;;;;;;;11.90;8.02;;;5.50;99.90;;;;;;5073780;28;20302;-47
2022/12/06 10:28:10;;;;;;;12.65;8.27;;;5.60;99.90;;;;;;5073668;28;20233;-46
2022/12/06 10:30:45;;;;;;;12.38;7.65;;;5.60;99.90;;;;;;5071763;28;20608;-45
2022/12/06 10:33:23;;;;;;;14.20;7.95;;;5.70;99.90;;;;;;5073010;28;20176;-44
2022/12/06 10:36:04;;;;;;;12.00;7.80;;;5.70;99.90;;;;;;5073307;28;20622;-45
2022/12/06 10:39:02;;;;;;;13.60;7.43;;;5.80;99.90;;;;;;5073800;28;20173;-44
2022/12/06 10:41:32;;;;;;;11.73;7.55;;;5.80;99.90;;;;;;5000855;28;20193;-44
2022/12/06 10:44:16;;;;;;;13.90;7.65;;;6.00;99.90;;;;;;5072860;28;20162;-46
2022/12/06 10:47:05;;;;;;;13.20;7.63;;;6.00;99.90;;;;;;5072943;28;20645;-46
2022/12/06 10:49:50;;;;;;;13.57;7.28;;;6.10;99.90;;;;;;5073217;28;20182;-45
2022/12/06 10:52:45;;;;;;;12.10;6.75;;;5.90;99.90;;;;;;5031772;28;20174;-44
2022/12/06 10:55:22;;;;;;;11.02;7.13;;;5.90;99.90;;;;;;5034749;28;20650;-45
2022/12/06 10:58:16;;;;;;;11.63;6.45;;;6.00;99.90;;;;;;5073148;28;20172;-45
2022/12/06 11:00:56;;;;;;;8.55;6.50;;;6.00;99.90;;;;;;5072579;28;20665;-45
2022/12/06 11:03:33;;;;;;;12.02;6.25;;;6.10;99.90;;;;;;5072586;28;20476;-44
2022/12/06 11:06:07;;;;;;;11.55;6.60;;;6.10;99.90;;;;;;5072486;28;20198;-45
2022/12/06 11:08:45;;;;;;;11.63;5.60;;;6.10;99.90;;;;;;5072628;28;20184;-45
2022/12/06 11:11:16;;;;;;;9.88;6.10;;;6.00;99.90;;;;;;5072512;28;20182;-46
2022/12/06 11:13:57;;;;;;;11.27;6.70;;;6.20;99.90;;;;;;5072008;28;20176;-44
2022/12/06 11:16:38;;;;;;;7.88;5.03;;;6.10;99.90;;;;;;5072590;28;20180;-45
2022/12/06 11:19:33;;;;;;;9.50;6.55;;;6.20;99.90;;;;;;5072206;28;20169;-44
2022/12/06 11:22:44;;;;;;;11.00;5.28;;;6.20;99.90;;;;;;5072540;28;20166;-47
2022/12/06 11:25:22;;;;;;;8.23;6.15;;;6.30;99.90;;;;;;4989815;28;20211;-46
2022/12/06 11:27:50;;;;;;;9.35;5.32;;;6.20;99.90;;;;;;5049371;28;20195;-45
2022/12/06 11:30:18;;;;;;;12.20;5.45;;;6.30;99.90;;;;;;5052897;28;20163;-44
2022/12/06 11:32:47;;;;;;;8.18;5.85;;;6.30;99.90;;;;;;5059491;28;20685;-44
2022/12/06 11:35:17;;;;;;;8.10;5.32;;;6.40;99.90;;;;;;5071958;28;20177;-44
2022/12/06 11:37:44;;;;;;;9.68;5.30;;;6.40;99.90;;;;;;5072072;28;20174;-45
2022/12/06 11:40:24;;;;;;;6.80;5.22;;;6.30;99.90;;;;;;5071962;28;20200;-51
2022/12/06 11:42:50;;;;;;;7.97;4.63;;;6.30;99.90;;;;;;5072494;28;20300;-52
2022/12/06 11:45:26;;;;;;;8.63;5.57;;;6.40;99.90;;;;;;5071731;28;20673;-50
2022/12/06 11:47:58;;;;;;;9.77;5.68;;;6.40;99.90;;;;;;5071929;28;20182;-53
2022/12/06 11:50:26;;;;;;;8.68;4.93;;;6.40;99.90;;;;;;5071907;28;20179;-53
2022/12/06 11:52:58;;;;;;;8.60;5.03;;;6.40;99.90;;;;;;5071618;28;20636;-51
2022/12/06 11:55:27;;;;;;;7.00;4.35;;;6.40;99.90;;;;;;5071660;28;20177;-53
2022/12/06 11:58:11;;;;;;;8.43;4.60;;;6.40;99.90;;;;;;5071755;28;20514;-54
2022/12/06 12:00:55;;;;;;;7.53;4.82;;;6.40;99.90;;;;;;5071477;28;20166;-49
2022/12/06 12:03:32;;;;;;;5.20;4.10;;;6.50;99.90;;;;;;5031998;28;20593;-53
2022/12/06 12:06:22;;;;;;;7.00;4.63;;;6.50;99.90;;;;;;5032688;28;20613;-51
2022/12/06 12:09:00;;;;;;;6.57;5.03;;;6.50;99.90;;;;;;5022509;28;20245;-45
2022/12/06 12:11:29;;;;;;;7.63;4.60;;;6.40;99.90;;;;;;5016958;28;20257;-45
2022/12/06 12:14:00;;;;;;;7.80;4.50;;;6.50;99.90;;;;;;5031628;28;20310;-45
2022/12/06 12:16:36;;;;;;;7.43;4.82;;;6.40;99.90;;;;;;5031433;28;20163;-45
2022/12/06 12:19:39;;;;;;;6.88;4.20;;;6.40;99.90;;;;;;5031349;28;20163;-46
2022/12/06 12:22:39;;;;;;;6.65;4.45;;;6.40;99.90;;;;;;5031288;28;20202;-45
2022/12/06 12:25:26;;;;;;;7.75;4.18;;;6.40;99.90;;;;;;5030256;28;20206;-45
2022/12/06 12:27:53;;;;;;;8.10;4.60;;;6.50;99.90;;;;;;5031216;28;20726;-45
2022/12/06 12:30:38;;;;;;;7.32;4.70;;;6.40;99.90;;;;;;5031611;28;20250;-45
2022/12/06 12:33:06;;;;;;;5.78;4.28;;;6.40;99.90;;;;;;5030945;28;20183;-45
2022/12/06 12:35:34;;;;;;;8.13;5.47;;;6.40;99.90;;;;;;5030075;28;20218;-46
2022/12/06 12:38:09;;;;;;;8.82;4.93;;;6.50;99.90;;;;;;5011231;28;20176;-51
2022/12/06 12:40:40;;;;;;;8.30;5.18;;;6.50;99.90;;;;;;5011276;28;20635;-48
2022/12/06 12:43:19;;;;;;;6.82;5.15;;;6.50;99.90;;;;;;5011269;28;20178;-51
2022/12/06 12:46:05;;;;;;;11.18;4.90;;;6.50;99.90;;;;;;5011248;28;20223;-48
2022/12/06 12:48:31;;;;;;;10.30;5.93;;;6.50;99.90;;;;;;5011042;28;20706;-46
2022/12/06 12:51:01;;;;;;;16.95;10.60;;;6.40;99.90;;;;;;5011044;28;20625;-52
2022/12/06 12:53:43;;;;;;;8.57;5.47;;;6.40;99.90;;;;;;5011133;28;20520;-49
2022/12/06 12:56:14;;;;;;;6.97;5.10;;;6.50;99.90;;;;;;5011220;28;20168;-54
2022/12/06 12:58:41;;;;;;;7.43;4.40;;;6.40;99.90;;;;;;5010831;28;20176;-48
2022/12/06 13:01:29;;;;;;;5.25;3.58;;;6.40;99.90;;;;;;5018668;28;20719;-51
2022/12/06 13:04:02;;;;;;;7.20;5.03;;;6.30;99.90;;;;;;5050631;28;20539;-50
2022/12/06 13:06:44;;;;;;;7.60;4.35;;;6.30;99.90;;;;;;5050313;28;20210;-51
2022/12/06 13:09:41;;;;;;;7.57;5.00;;;6.30;99.90;;;;;;5050368;28;20163;-51
2022/12/06 13:12:16;;;;;;;14.27;6.28;;;6.40;99.90;;;;;;5019431;28;20635;-52
2022/12/06 13:14:52;;;;;;;9.32;6.15;;;6.30;99.90;;;;;;5050252;28;20166;-45
2022/12/06 13:17:21;;;;;;;7.68;4.30;;;6.30;99.90;;;;;;5050852;28;20403;-45
2022/12/06 13:19:47;;;;;;;7.47;4.95;;;6.30;99.90;;;;;;5050507;28;20197;-45